Soaring Guidance
Issued by NWS Reno, NV

Current Version | Previous Version | Text Only | Print | Product List | Glossary On
Versions: 1 2 3 4 5 6 7
000
UXUS97 KREV 301346
SRGREV

SOARING FORECAST
NATIONAL WEATHER SERVICE - RENO NV
700 AM PDT SAT JUL 30 2016

THIS SOARING FORECAST IS FOR THE EASTERN SIERRA AND WESTERN NEVADA
WITH SPECIFIC INDICES FOR THE GREATER RENO AREA.

THIS FORECAST IS PREPARED DAILY BY 700 AM AND IS NOT UPDATED.

FOR CURRENT FLIGHT CONDITIONS...FORECASTS...AND ADVISORIES...ACCESS
YOUR LOCAL BRIEFING OUTLET OR FLIGHT SERVICE STATION.

*******************************************************************
FORECASTED LOCAL INDICES FOR RENO:        TODAY     YESTERDAY
FORECASTED MAX TEMP AT RENO (DEG F).....    101         103
FORECASTED TRIGGER TEMPERATURE (DEG F)..     86          88
   EXCEEDED YESTERDAY BY 1055 AM PDT
FORECASTED MAXIMUM ALTITUDE (FT MSL)....  18000       18000
FORECASTED SOARING INDEX (FPM)..........   1230        1206
FORECASTED K-INDEX.........VALID 18Z....     19          16
FORECASTED K-INDEX.........VALID 00Z....     31          22
FORECASTED LIFTED INDEX....VALID 18Z....      5           3
FORECASTED LIFTED INDEX....VALID 00Z....      1           2

AFTERNOON WINDS ALOFT FORECAST
MSL (FT) WIND/TEMP
9000  2718/+19
10000 2517/+16
12000 2415/+12
14000 2315/+06
16000 2315/+00
18000 2313/-06
24000 2613/-18
30000 2727/-34
34000 2728/-42
39000 2822/-51

SLIDE MOUNTAIN DATA:
     DATE       TIME     TEMP  DEWPT   RH         WIND (MPH)
                        (F)   (F)           | DIR  SPEED GUST
2016-07-30    05:20      60    33     36    | 266   15   21
2016-07-30    05:00      60    33     36    | 267   15   22
2016-07-30    04:50      60    33     36    | 265   16   23
2016-07-30    04:30      60    33     36    | 264   15   22

RENO TAF FORECAST:
KRNO 301126Z 3012/3112 VRB04KT P6SM SKC
     FM302100 28012G23KT P6SM SCT110
     FM310500 30006KT P6SM SKC

CARSON CITY TAF FORECAST:
KCXP 301126Z 3012/3112 VRB04KT P6SM SKC
     FM302100 26012G22KT P6SM SCT110
     FM310300 26005KT P6SM SKC

OUTLOOK FOR THE RENO-CARSON CITY-MINDEN AREA:
.SUNDAY...SUNNY. HAZE IN THE MORNING. HIGHS 90 TO 100. WEST WINDS
UP TO 10 MPH INCREASING TO 10 TO 15 MPH IN THE AFTERNOON.

SUNRISE AND SUNSET
JULY 30 2016..........SUNRISE   557 AM PDT   SUNSET   813 PM PDT
JULY 31 2016..........SUNRISE   558 AM PDT   SUNSET   812 PM PDT



USA.gov is the U.S. government's official web portal to all federal, state and local government web resources and services.